Time;durP1;ratioP1;P1;durP2;ratioP2;P2;SDS_P1;SDS_P2;PMS_P1;PMS_P2;Temp;Humidity;BMP_temperature;BMP_pressure;BME280_temperature;BME280_humidity;BME280_pressure;Samples;Min_cycle;Max_cycle;Signal;HPM_P1;HPM_P2
2022/08/24 00:03:19;;;;;;;5.18;2.38;;;;;;;-148.56;100.00;61375.16;5023323;28;20623;-28
2022/08/24 00:06:43;;;;;;;2.92;2.33;;;;;;;-148.56;100.00;61375.16;5025377;28;20075;-28
2022/08/24 00:10:07;;;;;;;2.95;2.03;;;;;;;-148.56;100.00;61375.16;5022525;28;20159;-28
2022/08/24 00:13:31;;;;;;;4.88;2.30;;;;;;;-148.56;100.00;61375.16;5022268;28;20061;-28
2022/08/24 00:16:56;;;;;;;3.33;2.13;;;;;;;-148.56;100.00;61375.16;5024002;28;20737;-30
2022/08/24 00:20:20;;;;;;;4.38;2.40;;;;;;;-148.56;100.00;61375.16;5021214;28;20044;-28
2022/08/24 00:23:45;;;;;;;2.25;1.70;;;;;;;-148.56;100.00;61375.16;5021327;28;20027;-29
2022/08/24 00:27:11;;;;;;;7.03;1.98;;;;;;;-148.56;100.00;61375.16;5028998;28;20116;-29
2022/08/24 00:30:35;;;;;;;4.32;2.28;;;;;;;-148.56;100.00;61375.16;5027294;28;20059;-29
2022/08/24 00:33:59;;;;;;;4.18;2.17;;;;;;;-148.56;100.00;61375.16;5023865;28;20043;-29
2022/08/24 00:37:23;;;;;;;2.50;1.95;;;;;;;-148.56;100.00;61375.16;5023988;28;20030;-28
2022/08/24 00:40:47;;;;;;;4.70;2.17;;;;;;;-148.56;100.00;61375.16;5025131;28;20025;-28
2022/08/24 00:44:13;;;;;;;4.57;2.05;;;;;;;-148.56;100.00;61375.16;5022803;28;20159;-28
2022/08/24 00:48:04;;;;;;;3.10;1.85;;;;;;;-148.56;100.00;61375.16;5025204;28;20484;-29
2022/08/24 00:51:42;;;;;;;2.58;2.03;;;;;;;-148.56;100.00;61375.16;5025968;28;20638;-28
2022/08/24 00:55:09;;;;;;;3.92;2.20;;;;;;;-148.56;100.00;61375.16;5009045;28;20046;-29
2022/08/24 00:58:36;;;;;;;3.90;2.20;;;;;;;-148.56;100.00;61375.16;5024410;28;20024;-30
2022/08/24 01:02:11;;;;;;;4.40;2.00;;;;;;;-148.56;100.00;61375.16;5031820;28;20110;-28
2022/08/24 01:05:43;;;;;;;3.35;2.17;;;;;;;-148.56;100.00;61375.16;5022882;28;20033;-29
2022/08/24 01:09:07;;;;;;;2.90;2.20;;;;;;;-148.56;100.00;61375.16;5023134;28;20128;-28
2022/08/24 01:12:32;;;;;;;3.47;2.03;;;;;;;-148.56;100.00;61375.16;5020861;28;20041;-28
2022/08/24 01:15:58;;;;;;;3.53;2.10;;;;;;;-148.56;100.00;61375.16;5027172;28;20025;-29
2022/08/24 01:19:33;;;;;;;3.00;2.30;;;;;;;-148.56;100.00;61375.16;5024548;28;20548;-27
2022/08/24 01:23:10;;;;;;;2.92;2.00;;;;;;;-148.56;100.00;61375.16;5022269;28;20618;-28
2022/08/24 01:26:38;;;;;;;4.47;2.10;;;;;;;-148.56;100.00;61375.16;5025539;28;20420;-28
2022/08/24 01:30:13;;;;;;;3.15;2.03;;;;;;;-148.56;100.00;61375.16;5024759;28;20025;-30
2022/08/24 01:33:37;;;;;;;5.90;2.08;;;;;;;-148.56;100.00;61375.16;5031235;28;20029;-28
2022/08/24 01:37:04;;;;;;;2.60;1.85;;;;;;;-148.56;100.00;61375.16;5048597;28;20033;-29
2022/08/24 01:40:31;;;;;;;4.80;2.00;;;;;;;-148.56;100.00;61375.16;5030451;28;20021;-29
2022/08/24 01:43:56;;;;;;;2.42;1.98;;;;;;;-148.56;100.00;61375.16;5028864;28;20033;-28
2022/08/24 01:47:19;;;;;;;5.35;2.25;;;;;;;-148.56;100.00;61375.16;5023620;28;20098;-28
2022/08/24 01:50:43;;;;;;;3.85;2.50;;;;;;;-148.56;100.00;61375.16;5032873;28;20492;-28
2022/08/24 01:54:08;;;;;;;3.25;2.00;;;;;;;-148.56;100.00;61375.16;5027672;28;20148;-28
2022/08/24 01:57:32;;;;;;;6.05;2.15;;;;;;;-148.56;100.00;61375.16;5031072;28;20029;-28
2022/08/24 02:00:56;;;;;;;2.90;1.90;;;;;;;-148.56;100.00;61375.16;5029167;28;20021;-28
2022/08/24 02:04:20;;;;;;;5.70;2.13;;;;;;;-148.56;100.00;61375.16;5029021;28;20030;-28
2022/08/24 02:07:44;;;;;;;3.33;2.00;;;;;;;-148.56;100.00;61375.16;5032011;28;20025;-28
2022/08/24 02:11:09;;;;;;;5.82;1.92;;;;;;;-148.56;100.00;61375.16;5031251;28;20542;-29
2022/08/24 02:14:33;;;;;;;4.82;2.00;;;;;;;-148.56;100.00;61375.16;5028314;28;20032;-28
2022/08/24 02:17:57;;;;;;;4.45;2.00;;;;;;;-148.56;100.00;61375.16;5030528;28;20040;-30
2022/08/24 02:21:21;;;;;;;3.13;1.88;;;;;;;-148.56;100.00;61375.16;5032796;28;20044;-31
2022/08/24 02:24:45;;;;;;;3.00;2.00;;;;;;;-148.56;100.00;61375.16;5031267;28;20475;-29
2022/08/24 02:28:09;;;;;;;3.25;2.03;;;;;;;-148.56;100.00;61375.16;5033554;28;20038;-32
2022/08/24 02:31:33;;;;;;;3.65;2.28;;;;;;;-148.56;100.00;61375.16;5031057;28;20025;-30
2022/08/24 02:34:57;;;;;;;4.03;2.00;;;;;;;-148.56;100.00;61375.16;5031205;28;20036;-29
2022/08/24 02:38:21;;;;;;;2.60;1.90;;;;;;;-148.56;100.00;61375.16;5028528;28;20047;-29
2022/08/24 02:41:44;;;;;;;4.18;1.80;;;;;;;-148.56;100.00;61375.16;5029430;28;20036;-28
2022/08/24 02:45:08;;;;;;;2.47;2.00;;;;;;;-148.56;100.00;61375.16;5028615;28;20114;-28
2022/08/24 02:48:33;;;;;;;3.78;2.05;;;;;;;-148.56;100.00;61375.16;5027483;28;20022;-29
2022/08/24 02:51:57;;;;;;;2.88;1.90;;;;;;;-148.56;100.00;61375.16;5026711;28;20037;-30
2022/08/24 02:55:21;;;;;;;3.30;1.90;;;;;;;-148.56;100.00;61375.16;5025813;28;20032;-29
2022/08/24 02:58:45;;;;;;;2.75;1.80;;;;;;;-148.56;100.00;61375.16;5031845;28;20522;-28
2022/08/24 03:02:09;;;;;;;3.10;1.92;;;;;;;-148.56;100.00;61375.16;5029969;28;20598;-28
2022/08/24 03:05:33;;;;;;;2.90;1.88;;;;;;;-148.56;100.00;61375.16;5026105;28;20091;-29
2022/08/24 03:08:57;;;;;;;3.25;2.10;;;;;;;-148.56;100.00;61375.16;5030503;28;20032;-29
2022/08/24 03:12:24;;;;;;;3.05;2.20;;;;;;;-148.56;100.00;61375.16;5031026;28;20021;-28
2022/08/24 03:15:47;;;;;;;2.75;1.77;;;;;;;-148.56;100.00;61375.16;5027989;28;20029;-28
2022/08/24 03:19:11;;;;;;;2.08;1.88;;;;;;;-148.56;100.00;61375.16;5029158;28;20024;-29
2022/08/24 03:22:35;;;;;;;3.50;2.10;;;;;;;-148.56;100.00;61375.16;5027600;28;20021;-28
2022/08/24 03:26:00;;;;;;;2.72;2.03;;;;;;;-148.56;100.00;61375.16;5028811;28;20447;-29
2022/08/24 03:29:24;;;;;;;3.22;1.90;;;;;;;-148.56;100.00;61375.16;5027693;28;20040;-30
2022/08/24 03:32:48;;;;;;;3.55;1.98;;;;;;;-148.56;100.00;61375.16;5030977;28;20030;-28
2022/08/24 03:36:12;;;;;;;2.63;1.70;;;;;;;-148.56;100.00;61375.16;5030934;28;20034;-28
2022/08/24 03:39:36;;;;;;;1.60;1.50;;;;;;;-148.56;100.00;61375.16;5029211;28;20524;-29
2022/08/24 03:43:00;;;;;;;2.28;1.90;;;;;;;-148.56;100.00;61375.16;5030484;28;20116;-29
2022/08/24 03:46:27;;;;;;;2.85;1.67;;;;;;;-148.56;100.00;61375.16;5028442;28;20033;-28
2022/08/24 03:49:52;;;;;;;2.42;1.77;;;;;;;-148.56;100.00;61375.16;5028970;28;20082;-29
2022/08/24 03:53:16;;;;;;;2.55;1.80;;;;;;;-148.56;100.00;61375.16;5028478;28;20044;-28
2022/08/24 03:56:40;;;;;;;3.17;2.00;;;;;;;-148.56;100.00;61375.16;5029963;28;20078;-29
2022/08/24 04:00:05;;;;;;;2.92;2.10;;;;;;;-148.56;100.00;61375.16;5027220;28;20063;-29
2022/08/24 04:03:29;;;;;;;3.17;1.90;;;;;;;-148.56;100.00;61375.16;5028505;28;20033;-29
2022/08/24 04:06:53;;;;;;;5.03;1.95;;;;;;;-148.56;100.00;61375.16;5024195;28;20051;-29
2022/08/24 04:10:17;;;;;;;3.28;2.05;;;;;;;-148.56;100.00;61375.16;5027273;28;20037;-28
2022/08/24 04:13:41;;;;;;;1.98;1.75;;;;;;;-148.56;100.00;61375.16;5026499;28;20029;-28
2022/08/24 04:17:10;;;;;;;2.13;1.67;;;;;;;-148.56;100.00;61375.16;5027974;28;20536;-30
2022/08/24 04:20:41;;;;;;;3.65;2.10;;;;;;;-148.56;100.00;61375.16;5031670;28;20064;-28
2022/08/24 04:24:05;;;;;;;2.33;1.80;;;;;;;-148.56;100.00;61375.16;5027161;28;20041;-29
2022/08/24 04:27:31;;;;;;;2.88;2.10;;;;;;;-148.56;100.00;61375.16;5029087;28;20032;-28
2022/08/24 04:30:55;;;;;;;3.13;1.90;;;;;;;-148.56;100.00;61375.16;5029519;28;20029;-28
2022/08/24 04:34:19;;;;;;;4.70;2.10;;;;;;;-148.56;100.00;61375.16;5023940;28;20123;-28
2022/08/24 04:37:43;;;;;;;3.65;2.10;;;;;;;-148.56;100.00;61375.16;5020297;28;20037;-29
2022/08/24 04:41:11;;;;;;;5.95;1.90;;;;;;;-148.56;100.00;61375.16;5030194;28;20055;-28
2022/08/24 04:44:35;;;;;;;2.05;1.85;;;;;;;-148.56;100.00;61375.16;5030330;28;20025;-27
2022/08/24 04:47:59;;;;;;;5.50;2.20;;;;;;;-148.56;100.00;61375.16;5026396;28;20033;-28
2022/08/24 04:51:22;;;;;;;4.68;2.20;;;;;;;-148.56;100.00;61375.16;5025754;28;20029;-30
2022/08/24 04:54:46;;;;;;;3.70;1.88;;;;;;;-148.56;100.00;61375.16;5024479;28;20029;-28
2022/08/24 04:58:11;;;;;;;5.68;2.28;;;;;;;-148.56;100.00;61375.16;5028372;28;20033;-28
2022/08/24 05:01:35;;;;;;;4.20;1.90;;;;;;;-148.56;100.00;61375.16;5027737;28;20040;-29
2022/08/24 05:04:59;;;;;;;3.10;1.90;;;;;;;-148.56;100.00;61375.16;5024577;28;20025;-28
2022/08/24 05:08:23;;;;;;;2.63;1.80;;;;;;;-148.56;100.00;61375.16;5029666;28;21128;-28
2022/08/24 05:11:47;;;;;;;5.50;2.28;;;;;;;-148.56;100.00;61375.16;5033788;28;20040;-28
2022/08/24 05:15:11;;;;;;;3.88;2.10;;;;;;;-148.56;100.00;61375.16;5030708;28;20037;-29
2022/08/24 05:18:36;;;;;;;2.47;2.00;;;;;;;-148.56;100.00;61375.16;5029959;28;20036;-29
2022/08/24 05:22:00;;;;;;;3.80;2.00;;;;;;;-148.56;100.00;61375.16;5034617;28;20021;-29
2022/08/24 05:25:24;;;;;;;3.70;1.92;;;;;;;-148.56;100.00;61375.16;5031891;28;20048;-29
2022/08/24 05:28:48;;;;;;;6.05;2.53;;;;;;;-148.56;100.00;61375.16;5031603;28;20627;-28
2022/08/24 05:32:13;;;;;;;3.42;2.20;;;;;;;-148.56;100.00;61375.16;5029184;28;20036;-28
2022/08/24 05:35:37;;;;;;;3.72;2.30;;;;;;;-148.56;100.00;61375.16;5029311;28;20033;-27
2022/08/24 05:39:02;;;;;;;3.10;2.15;;;;;;;-148.56;100.00;61375.16;5027224;28;20108;-30
2022/08/24 05:42:26;;;;;;;3.30;2.15;;;;;;;-148.56;100.00;61375.16;5033529;28;20021;-29
2022/08/24 05:45:50;;;;;;;4.13;2.13;;;;;;;-148.56;100.00;61375.16;5031220;28;20038;-28
2022/08/24 05:49:14;;;;;;;6.82;2.22;;;;;;;-148.56;100.00;61375.16;5032169;28;20124;-28
2022/08/24 05:52:38;;;;;;;7.10;2.13;;;;;;;-148.56;100.00;61375.16;5030083;28;20037;-28
2022/08/24 05:56:06;;;;;;;4.85;2.03;;;;;;;-148.56;100.00;61375.16;5031993;28;20037;-29
2022/08/24 05:59:30;;;;;;;6.05;2.35;;;;;;;-148.56;100.00;61375.16;5029810;28;20191;-30
2022/08/24 06:02:55;;;;;;;4.45;2.10;;;;;;;-148.56;100.00;61375.16;5028846;28;20020;-28
2022/08/24 06:06:19;;;;;;;4.78;2.10;;;;;;;-148.56;100.00;61375.16;5032273;28;20026;-29
2022/08/24 06:09:43;;;;;;;3.42;1.92;;;;;;;-148.56;100.00;61375.16;5029274;28;20025;-28
2022/08/24 06:13:07;;;;;;;3.10;2.20;;;;;;;-148.56;100.00;61375.16;5029897;28;20033;-28
2022/08/24 06:16:33;;;;;;;3.22;2.22;;;;;;;-148.56;100.00;61375.16;5030272;28;20439;-28
2022/08/24 06:19:57;;;;;;;3.97;2.30;;;;;;;-148.56;100.00;61375.16;5031784;28;20033;-28
2022/08/24 06:23:21;;;;;;;5.00;2.38;;;;;;;-148.56;100.00;61375.16;5031624;28;20094;-28
2022/08/24 06:30:27;;;;;;;6.80;2.20;;;;;;;-148.56;100.00;61375.16;5029447;28;20466;-28
2022/08/24 06:33:52;;;;;;;8.55;2.30;;;;;;;-148.56;100.00;61375.16;5030441;28;20033;-28
2022/08/24 06:37:16;;;;;;;3.95;2.30;;;;;;;-148.56;100.00;61375.16;5030283;28;20408;-29
2022/08/24 06:40:41;;;;;;;6.25;2.00;;;;;;;-148.56;100.00;61375.16;5027811;28;20033;-30
2022/08/24 06:44:05;;;;;;;5.97;2.30;;;;;;;-148.56;100.00;61375.16;5026781;28;20036;-28
2022/08/24 06:47:29;;;;;;;7.63;2.40;;;;;;;-148.56;100.00;61375.16;5027826;28;20029;-29
2022/08/24 06:50:55;;;;;;;11.80;2.78;;;;;;;-148.56;100.00;61375.16;5027900;28;20108;-29
2022/08/24 06:54:22;;;;;;;8.68;3.53;;;;;;;-148.56;100.00;61375.16;5023424;28;20615;-29
2022/08/24 06:57:47;;;;;;;10.38;3.38;;;;;;;-148.56;100.00;61375.16;5023655;28;20036;-28
2022/08/24 07:01:12;;;;;;;8.00;3.10;;;;;;;-148.56;100.00;61375.16;5028926;28;20025;-28
2022/08/24 07:04:36;;;;;;;10.90;3.00;;;;;;;-148.56;100.00;61375.16;5023959;28;21690;-28
2022/08/24 07:08:00;;;;;;;12.27;3.30;;;;;;;-148.56;100.00;61375.16;5027048;28;20029;-27
2022/08/24 07:11:24;;;;;;;7.68;3.20;;;;;;;-148.56;100.00;61375.16;5026124;28;20025;-28
2022/08/24 07:14:49;;;;;;;12.50;3.55;;;;;;;-148.56;100.00;61375.16;5026990;28;20033;-29
2022/08/24 07:18:13;;;;;;;17.63;3.65;;;;;;;-148.56;100.00;61375.16;5027493;28;20025;-29
2022/08/24 07:21:37;;;;;;;13.93;3.25;;;;;;;-148.56;100.00;61375.16;5030576;28;20028;-30
2022/08/24 07:25:01;;;;;;;16.95;3.35;;;;;;;-148.56;100.00;61375.16;5026872;28;20073;-29
2022/08/24 07:28:25;;;;;;;10.57;3.30;;;;;;;-148.56;100.00;61375.16;5027669;28;20098;-28
2022/08/24 07:31:48;;;;;;;8.27;3.50;;;;;;;-148.56;100.00;61375.16;5029949;28;21344;-29
2022/08/24 07:35:12;;;;;;;12.13;3.33;;;;;;;-148.56;100.00;61375.16;5029833;28;20041;-29
2022/08/24 07:38:36;;;;;;;12.38;3.35;;;;;;;-148.56;100.00;61375.16;5028754;28;20124;-29
2022/08/24 07:42:00;;;;;;;9.02;3.35;;;;;;;-148.56;100.00;61375.16;5032444;28;20025;-28
2022/08/24 07:45:25;;;;;;;11.40;3.00;;;;;;;-148.56;100.00;61375.16;5031231;28;20131;-29
2022/08/24 07:48:49;;;;;;;9.40;2.70;;;;;;;-148.56;100.00;61375.16;5029354;28;20493;-29
2022/08/24 07:52:14;;;;;;;12.77;3.05;;;;;;;-148.56;100.00;61375.16;5029762;28;20079;-28
2022/08/24 07:55:38;;;;;;;9.25;2.90;;;;;;;-148.56;100.00;61375.16;5031975;28;20065;-29
2022/08/24 07:59:02;;;;;;;7.95;3.13;;;;;;;-148.56;100.00;61375.16;5032122;28;20083;-29
2022/08/24 08:02:26;;;;;;;10.50;2.90;;;;;;;-148.56;100.00;61375.16;5031949;28;20057;-29
2022/08/24 08:05:55;;;;;;;13.35;3.10;;;;;;;-148.56;100.00;61375.16;5029200;28;20110;-29
2022/08/24 08:09:19;;;;;;;8.77;3.08;;;;;;;-148.56;100.00;61375.16;5030381;28;20057;-28
2022/08/24 08:12:43;;;;;;;7.07;3.03;;;;;;;-148.56;100.00;61375.16;5030210;28;20514;-28
2022/08/24 08:16:07;;;;;;;8.18;3.42;;;;;;;-148.56;100.00;61375.16;5028413;28;20170;-28
2022/08/24 08:19:32;;;;;;;6.13;3.22;;;;;;;-148.56;100.00;61375.16;5032842;28;20033;-28
2022/08/24 08:26:38;;;;;;;7.15;3.50;;;;;;;-148.56;100.00;61375.16;5028093;28;20098;-28
2022/08/24 08:30:05;;;;;;;10.27;3.38;;;;;;;-148.56;100.00;61375.16;5029724;28;20036;-27
2022/08/24 08:33:28;;;;;;;6.70;3.20;;;;;;;-148.56;100.00;61375.16;5029315;28;20029;-28
2022/08/24 08:37:00;;;;;;;9.02;3.30;;;;;;;-148.56;100.00;61375.16;5030088;28;20127;-28
2022/08/24 08:40:30;;;;;;;7.50;3.13;;;;;;;-148.56;100.00;61375.16;5025289;28;20908;-29
2022/08/24 08:43:59;;;;;;;11.13;3.40;;;;;;;-148.56;100.00;61375.16;5022907;28;22002;-28
2022/08/24 08:48:09;;;;;;;8.20;3.10;;;;;;;-148.56;100.00;61375.16;5025534;28;20079;-29
2022/08/24 08:51:45;;;;;;;5.40;2.65;;;;;;;-148.56;100.00;61375.16;5026001;28;20033;-28
2022/08/24 08:55:45;;;;;;;6.18;2.42;;;;;;;-148.56;100.00;61375.16;5026401;28;20041;-30
2022/08/24 08:59:28;;;;;;;6.13;2.42;;;;;;;-148.56;100.00;61375.16;5022220;28;20048;-28
2022/08/24 09:03:16;;;;;;;5.68;2.35;;;;;;;-148.56;100.00;61375.16;5019366;28;20028;-29
2022/08/24 09:06:45;;;;;;;4.50;2.13;;;;;;;-148.56;100.00;61375.16;5020766;28;20126;-28
2022/08/24 09:10:33;;;;;;;10.00;2.13;;;;;;;-148.56;100.00;61375.16;5023988;28;20033;-28
2022/08/24 09:14:34;;;;;;;12.82;4.28;;;;;;;-148.56;100.00;61375.16;5021577;28;20033;-29
2022/08/24 09:18:16;;;;;;;7.85;3.65;;;;;;;-148.56;100.00;61375.16;5023549;28;20260;-28
2022/08/24 09:22:02;;;;;;;7.95;3.53;;;;;;;-148.56;100.00;61375.16;5021972;28;20112;-28
2022/08/24 09:26:01;;;;;;;11.00;3.95;;;;;;;-148.56;100.00;61375.16;5018536;28;20052;-29
2022/08/24 09:29:40;;;;;;;9.18;3.67;;;;;;;-148.56;100.00;61375.16;5017694;28;20037;-30
2022/08/24 09:33:19;;;;;;;12.23;4.07;;;;;;;-148.56;100.00;61375.16;5021919;28;22174;-28
2022/08/24 09:37:07;;;;;;;10.30;3.58;;;;;;;-148.56;100.00;61375.16;5022984;28;20080;-29
2022/08/24 09:40:53;;;;;;;9.48;3.67;;;;;;;-148.56;100.00;61375.16;5025416;28;20606;-29
2022/08/24 09:44:26;;;;;;;10.93;3.95;;;;;;;-148.56;100.00;61375.16;5024866;28;20029;-29
2022/08/24 09:47:56;;;;;;;11.63;3.70;;;;;;;-148.56;100.00;61375.16;5025566;28;20025;-28
2022/08/24 09:51:50;;;;;;;8.38;3.97;;;;;;;-148.56;100.00;61375.16;5025329;28;20033;-29
2022/08/24 09:55:46;;;;;;;8.60;3.45;;;;;;;-148.56;100.00;61375.16;5027318;28;20029;-28
2022/08/24 09:59:17;;;;;;;7.95;3.83;;;;;;;-148.56;100.00;61375.16;5029551;28;20063;-29
2022/08/24 10:03:11;;;;;;;6.32;3.50;;;;;;;-148.56;100.00;61375.16;5028916;28;20530;-30
2022/08/24 10:07:00;;;;;;;10.93;4.00;;;;;;;-148.56;100.00;61375.16;5008238;28;20041;-28
2022/08/24 10:10:49;;;;;;;7.03;3.58;;;;;;;-148.56;100.00;61375.16;5029267;28;20028;-28
2022/08/24 10:14:22;;;;;;;7.25;3.70;;;;;;;-148.56;100.00;61375.16;5028197;28;20124;-28
2022/08/24 10:18:05;;;;;;;9.23;3.78;;;;;;;-148.56;100.00;61375.16;5027653;28;20594;-30
2022/08/24 10:21:47;;;;;;;6.88;3.15;;;;;;;-148.56;100.00;61375.16;5025525;28;20083;-28
2022/08/24 10:25:45;;;;;;;8.87;3.50;;;;;;;-148.56;100.00;61375.16;5026951;28;20025;-29
2022/08/24 10:29:15;;;;;;;9.10;3.22;;;;;;;-148.56;100.00;61375.16;5027294;28;20041;-29
2022/08/24 10:32:54;;;;;;;7.07;3.10;;;;;;;-148.56;100.00;61375.16;5026767;28;20083;-28
2022/08/24 10:37:08;;;;;;;7.38;3.17;;;;;;;-148.56;100.00;61375.16;5028824;28;20166;-28
2022/08/24 10:41:05;;;;;;;11.50;3.00;;;;;;;-148.56;100.00;61375.16;4976511;28;20026;-29
2022/08/24 10:44:35;;;;;;;10.32;3.20;;;;;;;-148.56;100.00;61375.16;5005053;28;20045;-28
2022/08/24 10:48:19;;;;;;;6.35;2.90;;;;;;;-148.56;100.00;61375.16;5024460;28;20048;-29
2022/08/24 10:51:46;;;;;;;5.63;3.00;;;;;;;-148.56;100.00;61375.16;5027707;28;20021;-29
2022/08/24 10:55:21;;;;;;;6.80;3.10;;;;;;;-148.56;100.00;61375.16;5028097;28;20037;-28
2022/08/24 10:59:10;;;;;;;4.35;2.50;;;;;;;-148.56;100.00;61375.16;5025686;28;20036;-28
2022/08/24 11:02:38;;;;;;;4.53;2.47;;;;;;;-148.56;100.00;61375.16;5028643;28;20033;-28
2022/08/24 11:06:27;;;;;;;6.72;2.80;;;;;;;-148.56;100.00;61375.16;5024740;28;20024;-28
2022/08/24 11:09:57;;;;;;;5.40;2.28;;;;;;;-148.56;100.00;61375.16;5025539;28;20034;-29
2022/08/24 11:13:22;;;;;;;5.43;2.45;;;;;;;-148.56;100.00;61375.16;5027835;28;20037;-29
2022/08/24 11:16:47;;;;;;;4.30;2.75;;;;;;;-148.56;100.00;61375.16;5027538;28;21662;-30
2022/08/24 11:20:23;;;;;;;3.55;2.20;;;;;;;-148.56;100.00;61375.16;5025370;28;20033;-29
2022/08/24 11:24:02;;;;;;;3.97;2.15;;;;;;;-148.56;100.00;61375.16;5025776;28;20037;-28
2022/08/24 11:27:29;;;;;;;5.38;2.47;;;;;;;-148.56;100.00;61375.16;5025453;28;20036;-28
2022/08/24 11:30:54;;;;;;;3.35;2.40;;;;;;;-148.56;100.00;61375.16;5027296;28;20798;-28
2022/08/24 11:34:47;;;;;;;4.07;2.30;;;;;;;-148.56;100.00;61375.16;5038844;28;20041;-29
2022/08/24 11:38:16;;;;;;;5.55;2.42;;;;;;;-148.56;100.00;61375.16;5022330;28;20171;-29
2022/08/24 11:42:04;;;;;;;8.55;2.28;;;;;;;-148.56;100.00;61375.16;5028988;28;20102;-29
2022/08/24 11:45:46;;;;;;;4.82;2.28;;;;;;;-148.56;100.00;61375.16;5017196;28;20500;-32
2022/08/24 11:49:43;;;;;;;6.28;2.25;;;;;;;-148.56;100.00;61375.16;5028763;28;20048;-31
2022/08/24 11:53:18;;;;;;;4.10;2.40;;;;;;;-148.56;100.00;61375.16;5023514;28;20029;-29
2022/08/24 11:57:16;;;;;;;4.00;2.10;;;;;;;-148.56;100.00;61375.16;5021941;28;20121;-28
2022/08/24 12:00:50;;;;;;;4.97;2.30;;;;;;;-148.56;100.00;61375.16;5018770;28;20024;-30
2022/08/24 12:04:46;;;;;;;7.10;2.13;;;;;;;-148.56;100.00;61375.16;5024548;28;20039;-30
2022/08/24 12:08:37;;;;;;;6.53;2.40;;;;;;;-148.56;100.00;61375.16;5004096;28;20037;-29
2022/08/24 12:12:10;;;;;;;3.35;2.30;;;;;;;-148.56;100.00;61375.16;5018452;28;20161;-29
2022/08/24 12:15:46;;;;;;;3.38;2.20;;;;;;;-148.56;100.00;61375.16;5020118;28;20036;-29
2022/08/24 12:19:20;;;;;;;5.13;2.58;;;;;;;-148.56;100.00;61375.16;5024382;28;20029;-29
2022/08/24 12:22:44;;;;;;;4.90;2.30;;;;;;;-148.56;100.00;61375.16;5017087;28;20029;-30
2022/08/24 12:26:11;;;;;;;8.50;2.28;;;;;;;-148.56;100.00;61375.16;5023703;28;20064;-29
2022/08/24 12:29:45;;;;;;;7.38;2.60;;;;;;;-148.56;100.00;61375.16;5024961;28;20487;-28
2022/08/24 12:33:30;;;;;;;7.32;3.20;;;;;;;-148.56;100.00;61375.16;5022348;28;20720;-28
2022/08/24 12:37:00;;;;;;;9.15;4.15;;;;;;;-148.56;100.00;61375.16;5017751;28;20041;-28
2022/08/24 12:40:34;;;;;;;14.15;4.32;;;;;;;-148.56;100.00;61375.16;5019718;28;20082;-28
2022/08/24 12:44:08;;;;;;;13.43;5.10;;;;;;;-148.56;100.00;61375.16;5025656;28;20032;-27
2022/08/24 12:47:32;;;;;;;13.65;5.38;;;;;;;-148.56;100.00;61375.16;5023032;28;20116;-29
2022/08/24 12:51:02;;;;;;;19.40;5.90;;;;;;;-148.56;100.00;61375.16;5024340;28;20028;-28
2022/08/24 12:54:51;;;;;;;12.43;5.68;;;;;;;-148.56;100.00;61375.16;5025913;28;20170;-27
2022/08/24 12:58:27;;;;;;;20.08;5.82;;;;;;;-148.56;100.00;61375.16;5024533;28;20060;-27
2022/08/24 13:02:01;;;;;;;13.75;5.20;;;;;;;-148.56;100.00;61375.16;5026562;28;20522;-28
2022/08/24 13:05:26;;;;;;;15.73;5.75;;;;;;;-148.56;100.00;61375.16;5024340;28;20033;-27
2022/08/24 13:08:50;;;;;;;16.40;5.80;;;;;;;-148.56;100.00;61375.16;5029455;28;20029;-29
2022/08/24 13:12:32;;;;;;;16.77;5.57;;;;;;;-148.56;100.00;61375.16;5030125;28;20127;-28
2022/08/24 13:16:34;;;;;;;14.85;6.28;;;;;;;-148.56;100.00;61375.16;5024045;28;20037;-28
2022/08/24 13:20:18;;;;;;;14.07;5.50;;;;;;;-148.56;100.00;61375.16;5025747;28;20040;-28
2022/08/24 13:23:43;;;;;;;15.82;5.57;;;;;;;-148.56;100.00;61375.16;5025013;28;20037;-28
2022/08/24 13:27:20;;;;;;;12.15;5.15;;;;;;;-148.56;100.00;61375.16;5025902;28;20033;-27
2022/08/24 13:31:22;;;;;;;13.32;5.07;;;;;;;-148.56;100.00;61375.16;5028928;28;20229;-28
2022/08/24 13:34:55;;;;;;;13.82;5.50;;;;;;;-148.56;100.00;61375.16;5030060;28;20032;-28
2022/08/24 13:38:40;;;;;;;11.18;5.00;;;;;;;-148.56;100.00;61375.16;5028608;28;20248;-27
2022/08/24 13:42:34;;;;;;;9.95;4.53;;;;;;;-148.56;100.00;61375.16;5026706;28;20089;-27
2022/08/24 13:46:00;;;;;;;12.57;4.53;;;;;;;-148.56;100.00;61375.16;5028087;28;20443;-27
2022/08/24 13:49:50;;;;;;;11.75;4.68;;;;;;;-148.56;100.00;61375.16;5027355;28;20098;-28
2022/08/24 13:53:35;;;;;;;10.52;4.90;;;;;;;-148.56;100.00;61375.16;5032265;28;20028;-31
2022/08/24 13:57:23;;;;;;;10.43;4.55;;;;;;;-148.56;100.00;61375.16;5033744;28;20790;-31
2022/08/24 14:00:58;;;;;;;9.25;4.30;;;;;;;-148.56;100.00;61375.16;5031899;28;20098;-28
2022/08/24 14:04:39;;;;;;;9.73;4.10;;;;;;;-148.56;100.00;61375.16;5032149;28;20091;-27
2022/08/24 14:08:10;;;;;;;11.35;4.10;;;;;;;-148.56;100.00;61375.16;5032070;28;20048;-29
2022/08/24 14:12:00;;;;;;;10.60;4.20;;;;;;;-148.56;100.00;61375.16;5032772;28;20563;-27
2022/08/24 14:17:50;;;;;;;8.43;4.15;;;;;;;-148.56;100.00;61375.16;5025967;28;20520;-28
2022/08/24 14:20:05;;;;;;;7.78;3.50;;;;;;;-148.56;100.00;61375.16;5030953;28;20048;-29
2022/08/24 14:24:01;;;;;;;7.60;3.83;;;;;;;-148.56;100.00;61375.16;5032052;28;20172;-27
2022/08/24 14:27:37;;;;;;;8.68;4.10;;;;;;;-148.56;100.00;61375.16;5034612;28;20029;-28
2022/08/24 14:31:26;;;;;;;6.20;3.40;;;;;;;-148.56;100.00;61375.16;5031311;28;20218;-28
2022/08/24 14:35:05;;;;;;;7.68;3.80;;;;;;;-148.56;100.00;61375.16;5035471;28;20060;-28
2022/08/24 14:38:45;;;;;;;6.15;2.97;;;;;;;-148.56;100.00;61375.16;5033146;28;20033;-28
2022/08/24 14:42:15;;;;;;;7.45;3.33;;;;;;;-148.56;100.00;61375.16;5029926;28;20052;-27
2022/08/24 14:45:58;;;;;;;6.32;3.25;;;;;;;-148.56;100.00;61375.16;5031464;28;20052;-28
2022/08/24 14:49:46;;;;;;;8.45;3.42;;;;;;;-148.56;100.00;61375.16;5025558;28;20082;-28
2022/08/24 14:53:21;;;;;;;7.50;3.53;;;;;;;-148.56;100.00;61375.16;5032414;28;20120;-29
2022/08/24 14:57:10;;;;;;;5.82;3.38;;;;;;;-148.56;100.00;61375.16;5031696;28;20049;-29
2022/08/24 15:00:46;;;;;;;5.88;3.28;;;;;;;-148.56;100.00;61375.16;5029883;28;20028;-27
2022/08/24 15:04:57;;;;;;;7.45;3.42;;;;;;;-148.56;100.00;61375.16;5022031;28;20033;-32
2022/08/24 15:08:31;;;;;;;7.47;3.67;;;;;;;-148.56;100.00;61375.16;5018495;28;20033;-30
2022/08/24 15:12:16;;;;;;;7.10;3.30;;;;;;;-148.56;100.00;61375.16;5018531;28;20036;-31
2022/08/24 15:16:14;;;;;;;5.35;2.90;;;;;;;-148.56;100.00;61375.16;5033456;28;20036;-29
2022/08/24 15:19:59;;;;;;;5.57;2.88;;;;;;;-148.56;100.00;61375.16;5027650;28;20045;-30
2022/08/24 15:23:40;;;;;;;5.15;3.00;;;;;;;-148.56;100.00;61375.16;5032569;28;20040;-27
2022/08/24 15:27:28;;;;;;;6.00;3.30;;;;;;;-148.56;100.00;61375.16;5029820;28;20022;-27
2022/08/24 15:30:59;;;;;;;5.10;2.70;;;;;;;-148.56;100.00;61375.16;5030937;28;20124;-28
2022/08/24 15:34:51;;;;;;;5.32;3.08;;;;;;;-148.56;100.00;61375.16;5031158;28;20565;-27
2022/08/24 15:38:30;;;;;;;5.07;2.95;;;;;;;-148.56;100.00;61375.16;5031425;28;20795;-26
2022/08/24 15:42:12;;;;;;;5.13;2.92;;;;;;;-148.56;100.00;61375.16;5030367;28;20623;-28
2022/08/24 15:45:37;;;;;;;4.97;2.90;;;;;;;-148.56;100.00;61375.16;5030074;28;20037;-28
2022/08/24 15:49:22;;;;;;;5.07;2.95;;;;;;;-148.56;100.00;61375.16;5021155;28;20099;-27
2022/08/24 15:52:59;;;;;;;5.13;2.97;;;;;;;-148.56;100.00;61375.16;5030744;28;20029;-28
2022/08/24 15:56:34;;;;;;;4.63;2.40;;;;;;;-148.56;100.00;61375.16;5031282;28;20059;-29
2022/08/24 16:00:12;;;;;;;4.90;2.70;;;;;;;-148.56;100.00;61375.16;5031638;28;20052;-27
2022/08/24 16:04:05;;;;;;;5.15;2.80;;;;;;;-148.56;100.00;61375.16;5030916;28;20026;-27
2022/08/24 16:07:33;;;;;;;6.90;2.70;;;;;;;-148.56;100.00;61375.16;5028837;28;20067;-27
2022/08/24 16:11:06;;;;;;;5.55;2.70;;;;;;;-148.56;100.00;61375.16;5031299;28;20155;-28